Time;durP1;ratioP1;P1;durP2;ratioP2;P2;SDS_P1;SDS_P2;PMS_P1;PMS_P2;Temp;Humidity;BMP_temperature;BMP_pressure;BME280_temperature;BME280_humidity;BME280_pressure;Samples;Min_cycle;Max_cycle;Signal;HPM_P1;HPM_P2
2021/08/28 00:02:23;;;;;;;6.33;4.00;;;14.40;99.90;;;;;;5010977;28;20249;-75
2021/08/28 00:04:50;;;;;;;5.80;3.73;;;14.40;99.90;;;;;;5010805;28;20195;-75
2021/08/28 00:07:15;;;;;;;6.03;4.00;;;14.40;99.90;;;;;;4994847;28;20255;-74
2021/08/28 00:09:41;;;;;;;5.53;3.77;;;14.40;99.90;;;;;;4994088;28;20180;-74
2021/08/28 00:12:06;;;;;;;6.13;4.10;;;14.40;99.90;;;;;;5010626;28;20287;-74
2021/08/28 00:14:32;;;;;;;9.30;4.40;;;14.40;99.90;;;;;;4994398;28;20698;-75
2021/08/28 00:16:58;;;;;;;5.43;3.83;;;14.40;99.90;;;;;;4994441;28;20670;-74
2021/08/28 00:19:23;;;;;;;6.37;3.97;;;14.40;99.90;;;;;;4996198;28;20501;-74
2021/08/28 00:21:49;;;;;;;5.43;4.20;;;14.40;99.90;;;;;;4997777;28;20203;-75
2021/08/28 00:24:14;;;;;;;6.93;4.23;;;14.40;99.90;;;;;;4981634;28;20179;-75
2021/08/28 00:26:40;;;;;;;5.93;4.50;;;14.30;99.90;;;;;;5014016;28;20184;-74
2021/08/28 00:29:05;;;;;;;6.77;4.40;;;14.40;99.90;;;;;;4997548;28;20654;-75
2021/08/28 00:31:31;;;;;;;8.40;4.63;;;14.40;99.90;;;;;;4998184;28;20720;-75
2021/08/28 00:33:57;;;;;;;5.83;4.47;;;14.40;99.90;;;;;;5014001;28;20191;-74
2021/08/28 00:36:22;;;;;;;6.87;4.77;;;14.40;99.90;;;;;;4997644;28;20650;-75
2021/08/28 00:38:48;;;;;;;8.07;4.60;;;14.40;99.90;;;;;;4998520;28;20175;-75
2021/08/28 00:41:14;;;;;;;6.13;4.50;;;14.40;99.90;;;;;;4981383;28;20714;-74
2021/08/28 00:43:40;;;;;;;7.97;4.83;;;14.40;99.90;;;;;;4981190;28;20203;-75
2021/08/28 00:46:05;;;;;;;6.53;5.03;;;14.40;99.90;;;;;;4997951;28;20192;-75
2021/08/28 00:48:31;;;;;;;5.87;5.17;;;14.40;99.90;;;;;;4981912;28;20179;-75
2021/08/28 00:50:56;;;;;;;5.80;4.77;;;14.40;99.90;;;;;;4997653;28;20203;-75
2021/08/28 00:53:22;;;;;;;6.03;4.43;;;14.50;99.90;;;;;;4981905;28;20200;-75
2021/08/28 00:55:48;;;;;;;5.90;5.07;;;14.50;99.90;;;;;;4997897;28;20659;-75
2021/08/28 00:58:14;;;;;;;6.67;4.87;;;14.50;99.90;;;;;;4997991;28;20176;-75
2021/08/28 01:00:44;;;;;;;8.20;5.07;;;14.50;99.90;;;;;;4981843;28;20604;-75
2021/08/28 01:03:10;;;;;;;6.37;4.93;;;14.60;99.90;;;;;;4998710;28;20198;-75
2021/08/28 01:06:26;;;;;;;7.10;5.50;;;14.60;99.90;;;;;;4982083;28;20171;-74
2021/08/28 01:08:58;;;;;;;7.93;5.43;;;14.60;99.90;;;;;;4999343;28;20184;-75
2021/08/28 01:11:43;;;;;;;8.03;6.10;;;14.60;99.90;;;;;;4998171;28;20261;-75
2021/08/28 01:14:12;;;;;;;6.57;5.33;;;14.70;99.90;;;;;;5014673;28;20160;-75
2021/08/28 01:16:38;;;;;;;6.57;5.37;;;14.70;99.90;;;;;;4982554;28;20175;-75
2021/08/28 01:19:03;;;;;;;9.47;5.27;;;14.70;99.90;;;;;;4998282;28;20210;-75
2021/08/28 01:21:34;;;;;;;9.53;5.43;;;14.70;99.90;;;;;;4981498;28;20184;-75
2021/08/28 01:24:02;;;;;;;6.43;4.73;;;14.70;99.90;;;;;;4982394;28;20238;-75
2021/08/28 01:26:34;;;;;;;6.40;5.10;;;14.80;99.90;;;;;;4981953;28;20183;-75
2021/08/28 01:29:19;;;;;;;6.10;5.00;;;14.80;99.90;;;;;;4998613;28;20274;-75
2021/08/28 01:31:48;;;;;;;5.37;4.63;;;14.80;99.90;;;;;;4996783;28;20254;-74
2021/08/28 01:34:15;;;;;;;8.63;5.50;;;14.80;99.90;;;;;;4998143;28;20172;-75
2021/08/28 01:36:41;;;;;;;7.57;5.17;;;14.80;99.90;;;;;;4997834;28;20167;-75
2021/08/28 01:39:06;;;;;;;6.53;5.00;;;14.80;99.90;;;;;;4981315;28;20545;-75
2021/08/28 01:41:32;;;;;;;6.47;5.43;;;14.80;99.90;;;;;;4981236;28;20246;-75
2021/08/28 01:43:57;;;;;;;8.33;5.10;;;14.80;99.90;;;;;;4998039;28;20558;-75
2021/08/28 01:46:23;;;;;;;7.07;5.10;;;14.80;99.90;;;;;;4981523;28;20187;-75
2021/08/28 01:48:49;;;;;;;6.60;5.30;;;14.80;99.90;;;;;;4997478;28;20176;-75
2021/08/28 01:51:14;;;;;;;6.80;5.23;;;14.80;99.90;;;;;;4997077;28;20199;-75
2021/08/28 01:53:40;;;;;;;5.87;4.93;;;14.80;99.90;;;;;;4980997;28;20231;-75
2021/08/28 01:56:05;;;;;;;8.07;5.40;;;14.90;99.90;;;;;;4997666;28;20180;-75
2021/08/28 01:58:31;;;;;;;5.30;4.80;;;14.90;99.90;;;;;;4996924;28;20184;-75
2021/08/28 02:00:57;;;;;;;9.17;5.47;;;14.90;99.90;;;;;;4980949;28;20183;-75
2021/08/28 02:03:22;;;;;;;6.60;5.40;;;14.90;99.90;;;;;;4997285;28;20206;-75
2021/08/28 02:05:48;;;;;;;6.17;5.40;;;14.90;99.90;;;;;;4997197;28;20655;-75
2021/08/28 02:08:21;;;;;;;7.50;6.27;;;14.90;99.90;;;;;;4980606;28;20965;-75
2021/08/28 02:10:48;;;;;;;8.03;5.70;;;14.90;99.90;;;;;;4997189;28;20682;-75
2021/08/28 02:13:18;;;;;;;7.00;5.77;;;14.90;99.90;;;;;;4996895;28;20306;-75
2021/08/28 02:15:47;;;;;;;8.57;6.13;;;14.80;99.90;;;;;;4997632;28;20167;-75
2021/08/28 02:18:17;;;;;;;11.23;6.30;;;14.90;99.90;;;;;;4997417;28;20172;-75
2021/08/28 02:20:46;;;;;;;9.00;6.47;;;14.90;99.90;;;;;;4996979;28;20184;-75
2021/08/28 02:23:14;;;;;;;10.50;6.43;;;14.90;99.90;;;;;;5013253;28;20338;-75
2021/08/28 02:25:53;;;;;;;10.13;6.57;;;14.80;99.90;;;;;;4996790;28;20247;-75
2021/08/28 02:28:23;;;;;;;7.00;6.20;;;14.90;99.90;;;;;;4980769;28;20187;-75
2021/08/28 02:30:49;;;;;;;10.93;6.90;;;14.90;99.90;;;;;;4979948;28;20207;-75
2021/08/28 02:33:15;;;;;;;11.70;7.57;;;14.90;99.90;;;;;;4996273;28;20201;-75
2021/08/28 02:35:41;;;;;;;8.97;7.57;;;14.90;99.90;;;;;;4980063;28;20262;-75
2021/08/28 02:38:06;;;;;;;8.77;7.70;;;14.90;99.90;;;;;;4980059;28;20175;-75
2021/08/28 02:40:32;;;;;;;11.23;8.43;;;14.90;99.90;;;;;;4979243;28;20218;-75
2021/08/28 02:42:57;;;;;;;10.47;8.17;;;14.90;99.90;;;;;;4979644;28;20214;-75
2021/08/28 02:45:26;;;;;;;9.73;7.93;;;14.90;99.90;;;;;;4996454;28;20182;-75
2021/08/28 02:47:51;;;;;;;10.63;8.80;;;14.90;99.90;;;;;;4997189;28;20168;-75
2021/08/28 02:50:17;;;;;;;13.57;8.73;;;14.90;99.90;;;;;;4996592;28;20215;-75
2021/08/28 02:52:44;;;;;;;14.60;9.47;;;14.90;99.90;;;;;;4980469;28;20748;-75
2021/08/28 02:55:10;;;;;;;13.00;8.77;;;14.90;99.90;;;;;;4980423;28;20187;-75
2021/08/28 02:57:37;;;;;;;13.50;9.53;;;14.90;99.90;;;;;;4980154;28;20183;-75
2021/08/28 03:00:03;;;;;;;13.43;8.97;;;15.00;99.90;;;;;;4996036;28;20180;-75
2021/08/28 03:02:28;;;;;;;10.77;9.73;;;14.90;99.90;;;;;;4979821;28;20222;-75
2021/08/28 03:04:54;;;;;;;11.83;9.50;;;14.90;99.90;;;;;;4995963;28;20655;-75
2021/08/28 03:07:20;;;;;;;11.80;9.40;;;14.90;99.90;;;;;;4979372;28;20706;-75
2021/08/28 03:09:45;;;;;;;11.60;10.40;;;14.90;99.90;;;;;;4978809;28;20766;-74
2021/08/28 03:12:11;;;;;;;13.57;10.70;;;14.90;99.90;;;;;;4994889;28;20215;-75
2021/08/28 03:14:37;;;;;;;14.80;10.23;;;14.90;99.90;;;;;;4978843;28;20179;-74
2021/08/28 03:17:02;;;;;;;14.40;10.50;;;14.80;99.90;;;;;;4995136;28;20203;-74
2021/08/28 03:19:28;;;;;;;16.13;10.07;;;14.80;99.90;;;;;;4995083;28;20265;-74
2021/08/28 03:21:54;;;;;;;13.30;10.80;;;14.80;99.90;;;;;;4995245;28;20206;-75
2021/08/28 03:24:20;;;;;;;14.27;10.70;;;14.80;99.90;;;;;;4979520;28;20249;-75
2021/08/28 03:26:46;;;;;;;13.83;11.17;;;14.70;99.90;;;;;;4995874;28;20186;-74
2021/08/28 03:29:12;;;;;;;16.67;11.43;;;14.80;99.90;;;;;;4978874;28;20198;-74
2021/08/28 03:31:38;;;;;;;13.57;11.43;;;14.70;99.90;;;;;;4978847;28;20207;-74
2021/08/28 03:34:03;;;;;;;15.23;10.97;;;14.80;99.90;;;;;;4978927;28;20178;-75
2021/08/28 03:36:29;;;;;;;15.43;12.13;;;14.70;99.90;;;;;;4979107;28;20184;-74
2021/08/28 03:38:54;;;;;;;15.53;12.13;;;14.80;99.90;;;;;;4978611;28;20663;-74
2021/08/28 03:41:20;;;;;;;13.73;11.60;;;14.70;99.90;;;;;;4995160;28;20555;-74
2021/08/28 03:43:46;;;;;;;15.90;12.47;;;14.70;99.90;;;;;;4978711;28;20179;-74
2021/08/28 03:46:12;;;;;;;15.60;12.23;;;14.70;99.90;;;;;;5012460;28;20667;-74
2021/08/28 03:48:38;;;;;;;18.73;12.60;;;14.70;99.90;;;;;;4994922;28;20263;-74
2021/08/28 03:51:04;;;;;;;17.57;12.70;;;14.70;99.90;;;;;;4978572;28;20298;-74
2021/08/28 03:53:29;;;;;;;16.07;12.50;;;14.70;99.90;;;;;;4979092;28;20192;-74
2021/08/28 03:55:58;;;;;;;14.80;12.43;;;14.70;99.90;;;;;;4998439;28;20164;-74
2021/08/28 03:58:24;;;;;;;17.03;13.47;;;14.70;99.90;;;;;;4982621;28;20180;-75
2021/08/28 04:00:50;;;;;;;18.00;13.33;;;14.70;99.90;;;;;;4998411;28;20176;-74
2021/08/28 04:03:16;;;;;;;16.40;13.23;;;14.70;99.90;;;;;;5014306;28;20199;-74
2021/08/28 04:05:41;;;;;;;19.20;14.10;;;14.70;99.90;;;;;;5014301;28;20650;-75
2021/08/28 04:08:07;;;;;;;15.43;13.40;;;14.70;99.90;;;;;;4998210;28;20543;-74
2021/08/28 04:10:32;;;;;;;15.67;12.27;;;14.70;99.90;;;;;;5014163;28;20204;-74
2021/08/28 04:12:58;;;;;;;14.60;12.10;;;14.60;99.90;;;;;;5014090;28;20243;-74
2021/08/28 04:15:23;;;;;;;16.27;12.17;;;14.60;99.90;;;;;;5014132;28;20175;-75
2021/08/28 04:17:49;;;;;;;15.57;12.00;;;14.60;99.90;;;;;;5014193;28;20179;-75
2021/08/28 04:20:14;;;;;;;17.23;11.77;;;14.60;99.90;;;;;;5014031;28;20179;-74
2021/08/28 04:22:40;;;;;;;14.27;11.77;;;14.60;99.90;;;;;;4997648;28;20282;-75
2021/08/28 04:25:07;;;;;;;14.10;11.17;;;14.60;99.90;;;;;;5014006;28;20179;-75
2021/08/28 04:27:33;;;;;;;12.97;10.70;;;14.60;99.90;;;;;;4981713;28;20191;-74
2021/08/28 04:29:58;;;;;;;11.57;10.37;;;14.60;99.90;;;;;;5014852;28;20207;-75
2021/08/28 04:32:24;;;;;;;10.27;9.23;;;14.50;99.90;;;;;;4997676;28;20576;-75
2021/08/28 04:34:49;;;;;;;12.40;9.07;;;14.50;99.90;;;;;;4997603;28;20375;-75
2021/08/28 04:37:15;;;;;;;9.30;7.63;;;14.50;99.90;;;;;;5013823;28;20583;-75
2021/08/28 04:39:40;;;;;;;9.20;7.67;;;14.50;99.90;;;;;;5013641;28;20222;-75
2021/08/28 04:42:06;;;;;;;9.43;7.97;;;14.50;99.90;;;;;;4997535;28;20215;-75
2021/08/28 04:44:32;;;;;;;9.33;8.43;;;14.50;99.90;;;;;;5013814;28;20792;-74
2021/08/28 04:46:58;;;;;;;9.73;7.83;;;14.50;99.90;;;;;;4981540;28;20190;-75
2021/08/28 04:49:23;;;;;;;9.77;8.17;;;14.50;99.90;;;;;;4997068;28;20550;-75
2021/08/28 04:51:49;;;;;;;9.40;7.87;;;14.50;99.90;;;;;;5014576;28;20211;-75
2021/08/28 04:54:14;;;;;;;8.43;7.43;;;14.50;99.90;;;;;;4997312;28;20179;-74
2021/08/28 04:56:40;;;;;;;8.77;7.20;;;14.50;99.90;;;;;;4997313;28;20188;-74
2021/08/28 04:59:05;;;;;;;8.33;6.97;;;14.50;99.90;;;;;;4997053;28;20180;-74
2021/08/28 05:01:31;;;;;;;6.90;6.20;;;14.50;99.90;;;;;;4997359;28;20184;-74
2021/08/28 05:03:56;;;;;;;6.90;5.90;;;14.50;99.90;;;;;;4981063;28;20215;-74
2021/08/28 05:06:22;;;;;;;6.33;5.40;;;14.50;99.90;;;;;;5014642;28;20184;-75
2021/08/28 05:08:47;;;;;;;7.77;5.60;;;14.50;99.90;;;;;;5013215;28;20183;-75
2021/08/28 05:11:13;;;;;;;5.70;4.83;;;14.50;99.90;;;;;;4996865;28;20235;-74
2021/08/28 05:13:39;;;;;;;6.50;5.00;;;14.50;99.90;;;;;;4996718;28;20310;-74
2021/08/28 05:16:05;;;;;;;5.27;4.10;;;14.50;99.90;;;;;;4997089;28;20561;-74
2021/08/28 05:18:31;;;;;;;5.63;4.17;;;14.50;99.90;;;;;;4982365;28;20195;-74
2021/08/28 05:20:56;;;;;;;5.37;3.70;;;14.50;99.90;;;;;;4967319;28;20188;-74
2021/08/28 05:23:22;;;;;;;6.63;4.33;;;14.50;99.90;;;;;;4993003;28;20742;-75
2021/08/28 05:25:47;;;;;;;4.63;3.90;;;14.50;99.90;;;;;;4961235;28;20216;-74
2021/08/28 05:28:13;;;;;;;6.73;4.13;;;14.50;99.90;;;;;;4993325;28;20551;-74
2021/08/28 05:30:39;;;;;;;7.30;4.00;;;14.60;99.90;;;;;;4960783;28;20243;-74
2021/08/28 05:33:04;;;;;;;9.37;4.40;;;14.60;99.90;;;;;;4977155;28;20222;-74
2021/08/28 05:35:30;;;;;;;5.43;4.53;;;14.60;99.90;;;;;;4977208;28;20180;-74
2021/08/28 05:37:55;;;;;;;9.10;5.20;;;14.70;99.90;;;;;;4977154;28;20215;-75
2021/08/28 05:40:21;;;;;;;6.57;5.00;;;14.70;99.90;;;;;;4976769;28;20181;-75
2021/08/28 05:42:46;;;;;;;8.17;5.83;;;14.70;99.90;;;;;;4960880;28;20204;-74
2021/08/28 05:45:12;;;;;;;7.33;5.40;;;14.70;99.90;;;;;;4994451;28;20263;-74
2021/08/28 05:47:38;;;;;;;10.63;6.13;;;14.70;99.90;;;;;;4976876;28;20259;-74
2021/08/28 05:50:04;;;;;;;10.03;5.57;;;14.70;99.90;;;;;;4992800;28;20260;-75
2021/08/28 05:52:29;;;;;;;7.13;5.03;;;14.70;99.90;;;;;;4976847;28;20255;-74
2021/08/28 05:54:55;;;;;;;9.60;5.53;;;14.70;99.90;;;;;;4993034;28;20181;-74
2021/08/28 05:57:21;;;;;;;7.30;5.67;;;14.70;99.90;;;;;;4976609;28;20549;-75
2021/08/28 05:59:46;;;;;;;7.73;5.53;;;14.70;99.90;;;;;;4992659;28;20181;-74
2021/08/28 06:02:12;;;;;;;8.60;5.30;;;14.70;99.90;;;;;;4976580;28;20200;-74
2021/08/28 06:04:38;;;;;;;6.87;5.50;;;14.70;99.90;;;;;;4976713;28;20707;-74
2021/08/28 06:07:03;;;;;;;6.70;5.50;;;14.70;99.90;;;;;;4976755;28;20238;-74
2021/08/28 06:09:29;;;;;;;9.27;5.73;;;14.60;99.90;;;;;;5009505;28;20172;-75
2021/08/28 06:11:55;;;;;;;10.20;6.13;;;14.60;99.90;;;;;;5008900;28;20220;-75
2021/08/28 06:14:20;;;;;;;8.23;6.07;;;14.60;99.90;;;;;;4992725;28;20726;-74
2021/08/28 06:16:46;;;;;;;6.93;5.37;;;14.60;99.90;;;;;;4992006;28;20181;-74
2021/08/28 06:19:12;;;;;;;8.90;5.50;;;14.60;99.90;;;;;;5008535;28;20236;-74
2021/08/28 06:21:37;;;;;;;8.33;5.87;;;14.70;99.90;;;;;;5008575;28;20181;-75
2021/08/28 06:24:03;;;;;;;8.60;5.70;;;14.70;99.90;;;;;;4993508;28;20259;-74
2021/08/28 06:26:29;;;;;;;9.73;5.93;;;14.60;99.90;;;;;;5008310;28;20215;-74
2021/08/28 06:28:54;;;;;;;9.83;6.33;;;14.60;99.90;;;;;;4991940;28;20216;-74
2021/08/28 06:31:20;;;;;;;8.40;6.13;;;14.60;99.90;;;;;;5008395;28;20224;-75
2021/08/28 06:33:45;;;;;;;10.17;6.43;;;14.70;99.90;;;;;;4991897;28;20196;-75
2021/08/28 06:36:11;;;;;;;9.33;6.40;;;14.60;99.90;;;;;;4992068;28;20275;-74
2021/08/28 06:38:36;;;;;;;10.77;6.73;;;14.60;99.90;;;;;;5008149;28;20180;-75
2021/08/28 06:41:02;;;;;;;10.83;6.57;;;14.60;99.90;;;;;;4993384;28;20212;-79
2021/08/28 06:43:28;;;;;;;11.23;6.40;;;14.60;99.90;;;;;;4992861;28;20311;-75
2021/08/28 06:45:54;;;;;;;9.57;6.63;;;14.60;99.90;;;;;;5008004;23;20597;-78
2021/08/28 06:48:20;;;;;;;9.73;6.30;;;14.60;99.90;;;;;;5031006;28;20182;-78
2021/08/28 06:50:46;;;;;;;8.97;6.50;;;14.60;99.90;;;;;;5014789;28;20237;-77
2021/08/28 06:53:12;;;;;;;10.27;6.60;;;14.60;99.90;;;;;;5031139;28;20664;-76
2021/08/28 06:55:37;;;;;;;9.93;6.20;;;14.70;99.90;;;;;;5030915;28;20707;-78
2021/08/28 06:58:03;;;;;;;8.60;6.70;;;14.70;99.90;;;;;;5030219;28;20267;-78
2021/08/28 07:00:28;;;;;;;9.03;6.67;;;14.70;99.90;;;;;;5016354;28;20171;-80
2021/08/28 07:02:54;;;;;;;9.73;6.90;;;14.70;99.90;;;;;;5017592;28;20175;-78
2021/08/28 07:05:19;;;;;;;14.40;7.77;;;14.70;99.90;;;;;;5016740;28;20695;-79
2021/08/28 07:07:45;;;;;;;9.97;6.20;;;14.70;99.90;;;;;;4999941;28;20175;-79
2021/08/28 07:10:11;;;;;;;13.23;7.00;;;14.80;99.90;;;;;;5030392;28;20290;-80
2021/08/28 07:12:36;;;;;;;10.20;7.20;;;14.70;99.90;;;;;;5030975;28;20585;-80
2021/08/28 07:15:02;;;;;;;9.83;7.00;;;14.70;99.90;;;;;;5015997;28;20267;-78
2021/08/28 07:17:28;;;;;;;9.80;6.67;;;14.70;99.90;;;;;;5008341;28;20179;-81
2021/08/28 07:19:53;;;;;;;9.50;6.73;;;14.70;99.90;;;;;;5013467;28;20176;-81
2021/08/28 07:22:19;;;;;;;9.03;6.97;;;14.70;99.90;;;;;;4997026;28;20666;-79
2021/08/28 07:24:44;;;;;;;12.43;7.83;;;14.80;99.90;;;;;;5013823;28;20175;-78
2021/08/28 07:27:10;;;;;;;11.57;7.80;;;14.80;99.90;;;;;;4997687;28;20191;-80
2021/08/28 07:29:35;;;;;;;14.97;7.53;;;14.80;99.90;;;;;;5016461;28;20203;-79
2021/08/28 07:32:01;;;;;;;12.73;8.17;;;14.90;99.90;;;;;;5002261;28;20213;-79
2021/08/28 07:34:27;;;;;;;11.07;7.90;;;14.80;99.90;;;;;;5017786;28;20182;-80
2021/08/28 07:36:52;;;;;;;16.23;8.17;;;14.90;99.90;;;;;;5001270;28;20282;-77
2021/08/28 07:39:18;;;;;;;11.00;8.00;;;15.00;99.90;;;;;;5001049;28;20206;-79
2021/08/28 07:41:44;;;;;;;11.83;7.33;;;15.00;99.90;;;;;;5002553;28;20222;-79
2021/08/28 07:44:09;;;;;;;13.63;8.17;;;15.10;99.90;;;;;;5003278;28;20182;-79
2021/08/28 07:46:35;;;;;;;12.73;8.40;;;15.10;99.90;;;;;;5001813;28;20569;-80
2021/08/28 07:49:00;;;;;;;11.50;7.93;;;15.10;99.90;;;;;;5001634;28;20180;-79
2021/08/28 07:51:26;;;;;;;12.37;8.50;;;15.10;99.90;;;;;;5001425;28;20199;-80
2021/08/28 07:53:51;;;;;;;12.17;8.20;;;15.10;99.90;;;;;;5002039;28;20256;-81
2021/08/28 07:56:17;;;;;;;11.30;7.70;;;15.20;99.90;;;;;;5001702;28;20195;-81
2021/08/28 07:58:43;;;;;;;13.60;8.67;;;15.40;99.90;;;;;;5000116;28;20172;-76
2021/08/28 08:01:11;;;;;;;12.97;8.80;;;15.50;99.90;;;;;;5015983;28;20267;-79
2021/08/28 08:03:37;;;;;;;10.73;8.33;;;15.70;99.90;;;;;;4998834;28;20176;-77
2021/08/28 08:06:03;;;;;;;10.73;7.83;;;15.80;99.90;;;;;;5014470;28;20206;-77
2021/08/28 08:08:28;;;;;;;9.63;7.57;;;15.80;99.90;;;;;;5016010;28;20179;-78
2021/08/28 08:10:54;;;;;;;11.93;7.67;;;16.00;99.90;;;;;;4998234;28;20203;-78
2021/08/28 08:13:19;;;;;;;9.00;7.30;;;16.10;99.90;;;;;;5014509;28;20176;-78
2021/08/28 08:15:45;;;;;;;10.20;7.90;;;16.20;99.90;;;;;;4998289;28;20857;-76
2021/08/28 08:18:10;;;;;;;9.47;7.70;;;16.30;99.90;;;;;;4998517;28;20517;-77
2021/08/28 08:20:36;;;;;;;8.27;6.37;;;16.40;99.90;;;;;;4998252;28;20178;-78
2021/08/28 08:23:03;;;;;;;12.47;7.00;;;16.40;99.90;;;;;;4998696;28;20211;-77
2021/08/28 08:25:29;;;;;;;10.60;7.97;;;16.30;99.90;;;;;;5023186;28;20260;-78
2021/08/28 08:27:55;;;;;;;9.20;7.33;;;16.30;99.90;;;;;;5015863;28;20190;-78
2021/08/28 08:30:20;;;;;;;8.03;6.83;;;16.40;99.90;;;;;;5014462;28;20654;-78
2021/08/28 08:32:46;;;;;;;9.43;6.77;;;16.30;99.90;;;;;;5020515;28;20179;-77
2021/08/28 08:35:11;;;;;;;9.30;6.73;;;16.30;99.90;;;;;;5031751;28;20203;-77
2021/08/28 08:37:37;;;;;;;10.30;6.73;;;16.30;99.90;;;;;;5034441;28;20179;-76
2021/08/28 08:40:03;;;;;;;8.37;7.07;;;16.30;99.90;;;;;;5034930;28;20209;-76
2021/08/28 08:42:28;;;;;;;11.37;8.33;;;16.20;99.90;;;;;;5036266;28;20186;-78
2021/08/28 08:44:54;;;;;;;11.67;9.37;;;16.20;99.90;;;;;;5035299;28;20175;-76
2021/08/28 08:47:20;;;;;;;9.93;8.40;;;16.30;99.90;;;;;;5034204;28;20605;-79
2021/08/28 08:49:47;;;;;;;9.10;7.97;;;16.30;99.90;;;;;;5034763;28;20625;-77
2021/08/28 08:52:12;;;;;;;9.37;7.37;;;16.30;99.90;;;;;;5033218;28;20191;-77
2021/08/28 08:54:38;;;;;;;9.97;7.10;;;16.30;99.90;;;;;;5030421;28;20236;-78
2021/08/28 08:57:04;;;;;;;7.90;7.00;;;16.20;99.90;;;;;;5034515;28;20221;-78
2021/08/28 08:59:29;;;;;;;7.33;6.50;;;16.10;99.90;;;;;;5032335;28;20206;-78
2021/08/28 09:01:55;;;;;;;7.80;6.43;;;16.10;99.90;;;;;;5013413;28;20665;-78
2021/08/28 09:04:20;;;;;;;8.93;6.43;;;16.10;99.90;;;;;;5001758;28;20202;-78
2021/08/28 09:06:46;;;;;;;8.43;6.50;;;16.10;99.90;;;;;;5034511;28;20195;-78
2021/08/28 09:09:15;;;;;;;8.20;5.93;;;16.10;99.90;;;;;;5035103;28;20171;-78
2021/08/28 09:12:03;;;;;;;10.27;6.87;;;16.20;99.90;;;;;;5018231;28;20206;-78
2021/08/28 09:14:29;;;;;;;8.97;7.23;;;16.20;99.90;;;;;;5017220;28;20178;-77
2021/08/28 09:16:55;;;;;;;8.67;6.40;;;16.40;99.90;;;;;;5015292;28;20195;-77
2021/08/28 09:19:37;;;;;;;8.70;6.40;;;16.40;99.90;;;;;;4998283;28;20179;-78
2021/08/28 09:22:05;;;;;;;8.00;6.33;;;16.50;99.90;;;;;;5010458;28;20259;-77
2021/08/28 09:24:41;;;;;;;8.53;6.60;;;16.60;99.90;;;;;;5010794;28;20196;-77
2021/08/28 09:27:07;;;;;;;10.03;7.37;;;16.70;99.90;;;;;;5031574;28;20195;-77
2021/08/28 09:29:32;;;;;;;10.07;6.87;;;16.70;99.90;;;;;;5029277;28;20182;-76
2021/08/28 09:31:58;;;;;;;10.53;6.63;;;16.90;99.90;;;;;;5031636;28;20195;-78
2021/08/28 09:34:28;;;;;;;7.30;6.30;;;17.10;99.90;;;;;;5030854;28;20191;-77
2021/08/28 09:37:00;;;;;;;8.60;6.57;;;17.20;99.90;;;;;;5013909;28;20203;-78
2021/08/28 09:39:56;;;;;;;7.67;6.37;;;17.40;99.90;;;;;;5026302;28;20179;-77
2021/08/28 09:42:22;;;;;;;6.27;5.40;;;17.50;99.90;;;;;;5024045;28;20217;-79
2021/08/28 09:44:51;;;;;;;5.80;5.10;;;17.50;99.90;;;;;;5015525;28;20229;-78
2021/08/28 09:47:25;;;;;;;5.20;4.60;;;17.50;99.90;;;;;;5018771;28;20269;-79
2021/08/28 09:49:52;;;;;;;6.33;5.43;;;17.50;99.90;;;;;;5018481;28;20378;-79
2021/08/28 09:52:20;;;;;;;5.27;4.23;;;17.50;99.90;;;;;;5032421;28;20859;-77
2021/08/28 09:54:45;;;;;;;5.80;4.10;;;17.50;99.90;;;;;;5031517;28;20183;-77
2021/08/28 09:57:11;;;;;;;4.07;3.67;;;17.50;99.90;;;;;;5031496;28;20249;-75
2021/08/28 09:59:36;;;;;;;4.97;4.33;;;17.50;99.90;;;;;;5031080;28;20167;-78
2021/08/28 10:02:06;;;;;;;4.73;4.30;;;17.50;99.90;;;;;;5011529;28;20275;-78
2021/08/28 10:04:47;;;;;;;4.47;3.73;;;17.40;99.90;;;;;;5020102;28;20297;-76
2021/08/28 10:07:14;;;;;;;5.00;4.17;;;17.50;99.90;;;;;;5011460;28;20203;-77
2021/08/28 10:09:39;;;;;;;5.07;4.27;;;17.50;99.90;;;;;;5029342;28;20186;-76
2021/08/28 10:12:05;;;;;;;5.47;4.90;;;17.50;99.90;;;;;;5029555;28;20203;-77
2021/08/28 10:14:30;;;;;;;5.20;4.33;;;17.50;99.90;;;;;;5030090;28;20179;-78
2021/08/28 10:16:56;;;;;;;5.47;4.47;;;17.60;99.90;;;;;;5029203;28;20195;-77
2021/08/28 10:19:22;;;;;;;4.80;4.30;;;17.60;99.90;;;;;;5029741;28;20179;-77
2021/08/28 10:21:48;;;;;;;6.03;4.83;;;17.60;99.90;;;;;;5012568;28;20189;-77
2021/08/28 10:24:14;;;;;;;4.57;3.93;;;17.60;99.90;;;;;;5015878;28;20186;-82
2021/08/28 10:26:42;;;;;;;5.10;4.60;;;17.80;99.90;;;;;;5032797;28;20197;-77
2021/08/28 10:29:07;;;;;;;5.63;3.90;;;18.00;99.90;;;;;;5013511;28;20186;-78
2021/08/28 10:31:33;;;;;;;4.70;4.20;;;18.20;99.90;;;;;;5013073;28;20194;-76
2021/08/28 10:33:58;;;;;;;4.20;3.63;;;18.40;99.90;;;;;;5013449;28;20175;-77
2021/08/28 10:36:24;;;;;;;5.00;3.87;;;18.50;99.90;;;;;;5015562;28;20286;-79
2021/08/28 10:38:49;;;;;;;4.30;3.90;;;18.60;99.90;;;;;;5012056;28;20642;-77
2021/08/28 10:41:15;;;;;;;4.77;3.90;;;18.80;99.90;;;;;;5011110;28;20838;-77
2021/08/28 10:43:41;;;;;;;4.83;3.73;;;19.00;99.90;;;;;;5014690;28;20317;-77
2021/08/28 10:46:37;;;;;;;3.87;3.47;;;19.20;99.90;;;;;;5030709;28;20218;-77
2021/08/28 10:49:03;;;;;;;3.70;3.20;;;19.10;99.90;;;;;;5011049;28;20193;-77
2021/08/28 10:51:36;;;;;;;3.13;2.80;;;19.00;99.90;;;;;;5015826;28;20203;-77
2021/08/28 10:54:06;;;;;;;4.23;3.10;;;19.00;99.90;;;;;;5011667;28;20172;-76
2021/08/28 10:56:41;;;;;;;2.97;2.60;;;19.10;99.90;;;;;;5030430;28;20209;-76
2021/08/28 10:59:36;;;;;;;2.67;2.47;;;19.10;99.90;;;;;;5010656;28;20178;-77
2021/08/28 11:02:08;;;;;;;2.73;2.53;;;19.10;99.90;;;;;;4991388;28;20701;-77
2021/08/28 11:04:35;;;;;;;3.63;2.50;;;19.20;99.90;;;;;;5030087;28;20179;-76
2021/08/28 11:07:26;;;;;;;3.03;2.00;;;19.30;99.90;;;;;;5023249;28;20195;-79
2021/08/28 11:10:15;;;;;;;5.30;2.07;;;19.60;99.90;;;;;;5038291;28;20584;-81
2021/08/28 11:12:49;;;;;;;2.90;2.00;;;19.80;99.90;;;;;;5022829;28;20179;-81
2021/08/28 11:15:24;;;;;;;2.67;1.93;;;19.90;99.90;;;;;;5022969;28;20199;-81
2021/08/28 11:18:01;;;;;;;2.63;2.20;;;19.80;99.90;;;;;;5038649;28;20232;-81
2021/08/28 11:20:39;;;;;;;2.70;2.30;;;19.70;99.90;;;;;;5027081;28;20185;-81
2021/08/28 11:23:06;;;;;;;3.13;2.83;;;19.40;99.90;;;;;;5021542;28;20582;-78
2021/08/28 11:25:33;;;;;;;2.80;2.20;;;19.10;99.90;;;;;;5031038;28;20293;-78
2021/08/28 11:27:59;;;;;;;3.17;2.37;;;19.00;99.90;;;;;;4997085;28;20172;-78
2021/08/28 11:30:44;;;;;;;2.57;2.37;;;18.90;99.90;;;;;;5014019;28;20677;-78
2021/08/28 11:33:16;;;;;;;3.17;2.40;;;18.90;99.90;;;;;;5031186;28;20224;-78
2021/08/28 11:35:45;;;;;;;2.87;2.57;;;18.90;99.90;;;;;;5020297;28;20205;-80
2021/08/28 11:38:13;;;;;;;4.30;2.70;;;19.00;99.90;;;;;;5023151;28;20179;-80
2021/08/28 11:40:38;;;;;;;3.97;3.27;;;19.00;99.90;;;;;;5042116;28;20214;-81
2021/08/28 11:43:05;;;;;;;4.93;3.87;;;19.00;99.90;;;;;;5041128;28;20237;-80
2021/08/28 11:45:36;;;;;;;5.00;3.63;;;19.20;99.90;;;;;;5023421;28;20640;-81
2021/08/28 11:48:09;;;;;;;4.97;4.20;;;19.30;99.90;;;;;;5007573;28;20183;-81
2021/08/28 11:50:34;;;;;;;4.90;3.87;;;19.50;99.90;;;;;;5034483;28;20244;-81
2021/08/28 11:53:00;;;;;;;5.20;3.87;;;19.60;99.90;;;;;;5036330;28;20605;-81
2021/08/28 11:55:26;;;;;;;5.07;3.97;;;19.60;99.90;;;;;;5036278;28;20195;-82
2021/08/28 11:58:04;;;;;;;5.73;4.40;;;19.60;99.90;;;;;;5036518;28;20198;-81
2021/08/28 12:00:30;;;;;;;6.10;4.10;;;19.50;99.90;;;;;;5038655;28;20175;-80
2021/08/28 12:02:59;;;;;;;5.40;4.33;;;19.40;99.90;;;;;;5036521;28;20179;-80
2021/08/28 12:05:25;;;;;;;5.77;4.50;;;19.40;99.90;;;;;;5019188;28;20238;-81
2021/08/28 12:07:52;;;;;;;6.40;4.37;;;19.30;99.90;;;;;;5013391;28;21756;-79
2021/08/28 12:10:17;;;;;;;6.03;4.33;;;19.30;99.90;;;;;;4999644;28;20199;-81
2021/08/28 12:12:43;;;;;;;6.03;4.60;;;19.10;99.90;;;;;;5010232;28;20538;-80
2021/08/28 12:15:09;;;;;;;7.07;4.70;;;19.10;99.90;;;;;;5022445;28;20253;-81
2021/08/28 12:17:34;;;;;;;5.30;4.27;;;19.00;99.90;;;;;;5023345;28;20174;-80
2021/08/28 12:20:00;;;;;;;6.23;4.60;;;18.90;99.90;;;;;;5022799;28;20175;-81
2021/08/28 12:22:26;;;;;;;6.07;4.87;;;19.00;99.90;;;;;;5038556;28;20182;-81
2021/08/28 12:24:51;;;;;;;5.37;4.40;;;19.30;99.90;;;;;;5038113;28;20172;-83
2021/08/28 12:27:17;;;;;;;6.93;4.67;;;19.70;99.90;;;;;;5021281;28;20179;-80
2021/08/28 12:29:43;;;;;;;5.13;4.47;;;19.80;99.90;;;;;;5020492;28;20262;-80
2021/08/28 12:32:25;;;;;;;4.73;3.87;;;19.70;99.90;;;;;;5020857;28;20195;-80
2021/08/28 12:34:55;;;;;;;5.60;4.13;;;19.60;99.90;;;;;;5019857;28;20181;-80
2021/08/28 12:37:21;;;;;;;6.23;4.63;;;19.60;99.90;;;;;;5023017;28;20167;-81
2021/08/28 12:39:52;;;;;;;4.60;3.93;;;19.60;99.90;;;;;;5035072;28;20655;-78
2021/08/28 12:42:19;;;;;;;4.77;4.00;;;19.80;99.90;;;;;;5011431;28;20179;-80
2021/08/28 12:44:45;;;;;;;4.53;3.93;;;19.90;99.90;;;;;;5014956;28;20194;-79